Lilly, Illinois
Current Conditions -  °F | °C
As of 10:56 PM on Tuesday 25 Nov 2014 (Local Time) from KBMI Reporting Station
Clear Clear  
Wind Chill: 14°   Ceiling: Unl
Heat Index: 22°   Visibility: 10mi
Dew Point: 19°   Wind: 7mph
Humidity: 88%   Direction: 160°SSE
Pressure: 30.17"   Gusts: NA
Location:  40.5282°N, 89.3251°W
Report Text: KBMI 260456Z AUTO 16006KT 10SM CLR M06/M07 A3017 RMK AO2 T10551072 SLP241
Loading
Personal Weather Stations






























Interactive Weather Map New forecast layout! Learn more

10-Day Weather Forecast

Advertisements
Track Severe Weather on mobile